createdAt,value
2019-05-11T00:00:30.838Z,1007.62
2019-05-11T00:01:30.844Z,1007.68
2019-05-11T00:02:30.822Z,1007.65
2019-05-11T00:03:30.860Z,1007.66
2019-05-11T00:04:30.790Z,1007.69
2019-05-11T00:05:30.873Z,1007.69
2019-05-11T00:06:30.768Z,1007.65
2019-05-11T00:07:30.814Z,1007.65
2019-05-11T00:08:30.745Z,1007.70
2019-05-11T00:09:31.825Z,1007.70
2019-05-11T00:10:30.722Z,1007.68
2019-05-11T00:11:31.733Z,1007.68
2019-05-11T00:12:30.720Z,1007.67
2019-05-11T00:13:30.722Z,1007.63
2019-05-11T00:14:30.683Z,1007.61
2019-05-11T00:15:30.738Z,1007.64
2019-05-11T00:16:30.664Z,1007.55
2019-05-11T00:17:30.788Z,1007.59
2019-05-11T00:18:30.639Z,1007.53
2019-05-11T00:19:30.659Z,1007.51
2019-05-11T00:20:30.619Z,1007.52
2019-05-11T00:21:30.674Z,1007.55
2019-05-11T00:22:30.612Z,1007.47
2019-05-11T00:23:30.688Z,1007.49
2019-05-11T00:24:30.576Z,1007.49
2019-05-11T00:25:30.598Z,1007.53
2019-05-11T00:26:30.561Z,1007.48
2019-05-11T00:27:30.642Z,1007.53
2019-05-11T00:28:30.545Z,1007.50
2019-05-11T00:29:30.656Z,1007.51
2019-05-11T00:30:30.505Z,1007.51
2019-05-11T00:31:30.536Z,1007.54
2019-05-11T00:32:30.500Z,1007.54
2019-05-11T00:33:30.594Z,1007.60
2019-05-11T00:34:30.468Z,1007.57
2019-05-11T00:35:30.565Z,1007.60
2019-05-11T00:36:30.441Z,1007.59
2019-05-11T00:37:30.552Z,1007.50
2019-05-11T00:38:30.422Z,1007.54
2019-05-11T00:39:30.485Z,1007.49
2019-05-11T00:40:30.416Z,1007.56
2019-05-11T00:41:30.501Z,1007.48
2019-05-11T00:42:30.391Z,1007.54
2019-05-11T00:43:30.414Z,1007.47
2019-05-11T00:44:30.356Z,1007.48
2019-05-11T00:45:30.427Z,1007.44
2019-05-11T00:46:30.333Z,1007.55
2019-05-11T00:47:30.368Z,1007.52
2019-05-11T00:48:30.312Z,1007.53
2019-05-11T00:49:30.356Z,1007.55
2019-05-11T00:50:38.615Z,1007.56
2019-05-11T00:51:31.274Z,1007.57
2019-05-11T00:52:30.370Z,1007.58
2019-05-11T00:53:30.290Z,1007.60
2019-05-11T00:54:38.274Z,1007.64
2019-05-11T00:55:30.236Z,1007.62
2019-05-11T00:56:37.263Z,1007.61
2019-05-11T00:57:30.219Z,1007.58
2019-05-11T00:58:30.245Z,1007.59
2019-05-11T00:59:30.190Z,1007.61
2019-05-11T01:00:30.229Z,1007.61
2019-05-11T01:01:30.168Z,1007.61
2019-05-11T01:02:30.237Z,1007.63
2019-05-11T01:03:30.160Z,1007.67
2019-05-11T01:04:31.172Z,1007.69
2019-05-11T01:05:30.124Z,1007.74
2019-05-11T01:06:30.164Z,1007.69
2019-05-11T01:07:30.102Z,1007.75
2019-05-11T01:08:30.211Z,1007.73
2019-05-11T01:09:30.083Z,1007.80
2019-05-11T01:10:41.737Z,1007.82
2019-05-11T01:11:31.118Z,1007.76
2019-05-11T01:12:30.128Z,1007.76
2019-05-11T01:13:30.053Z,1007.69
2019-05-11T01:14:30.115Z,1007.75
2019-05-11T01:15:30.023Z,1007.66
2019-05-11T01:16:30.039Z,1007.65
2019-05-11T01:17:29.994Z,1007.60
2019-05-11T01:18:30.074Z,1007.66
2019-05-11T01:19:29.973Z,1007.58
2019-05-11T01:20:30.058Z,1007.56
2019-05-11T01:21:29.951Z,1007.58
2019-05-11T01:22:29.960Z,1007.52
2019-05-11T01:23:29.941Z,1007.56
2019-05-11T01:24:29.974Z,1007.57
2019-05-11T01:25:29.907Z,1007.55
2019-05-11T01:26:29.996Z,1007.59
2019-05-11T01:27:29.886Z,1007.57
2019-05-11T01:28:29.932Z,1007.57
2019-05-11T01:29:29.863Z,1007.56
2019-05-11T01:30:29.912Z,1007.61
2019-05-11T01:31:29.844Z,1007.58
2019-05-11T01:32:29.925Z,1007.61
2019-05-11T01:33:29.839Z,1007.60
2019-05-11T01:34:29.836Z,1007.58
2019-05-11T01:35:29.796Z,1007.53
2019-05-11T01:36:29.853Z,1007.57
2019-05-11T01:37:29.790Z,1007.54
2019-05-11T01:38:30.821Z,1007.52
2019-05-11T01:39:29.751Z,1007.53
2019-05-11T01:40:29.775Z,1007.48
2019-05-11T01:41:29.738Z,1007.51
2019-05-11T01:42:29.791Z,1007.46
2019-05-11T01:43:29.734Z,1007.46
2019-05-11T01:44:29.804Z,1007.46
2019-05-11T01:45:29.690Z,1007.46
2019-05-11T01:46:29.714Z,1007.43
2019-05-11T01:47:29.671Z,1007.41
2019-05-11T01:48:29.762Z,1007.44
2019-05-11T01:49:29.653Z,1007.47
2019-05-11T01:50:30.666Z,1007.42
2019-05-11T01:51:29.623Z,1007.35
2019-05-11T01:52:29.654Z,1007.40
2019-05-11T01:53:29.628Z,1007.37
2019-05-11T01:54:29.668Z,1007.35
2019-05-11T01:55:29.580Z,1007.30
2019-05-11T01:56:29.680Z,1007.28
2019-05-11T01:57:29.563Z,1007.30
2019-05-11T01:58:29.676Z,1007.27
2019-05-11T01:59:29.632Z,1007.24
2019-05-11T02:00:29.607Z,1007.30
2019-05-11T02:01:29.515Z,1007.27
2019-05-11T02:02:29.518Z,1007.27
2019-05-11T02:03:29.508Z,1007.26
2019-05-11T02:04:29.532Z,1007.30
2019-05-11T02:05:29.474Z,1007.27
2019-05-11T02:06:29.561Z,1007.31
2019-05-11T02:07:29.448Z,1007.31
2019-05-11T02:08:29.595Z,1007.29
2019-05-11T02:09:29.428Z,1007.27
2019-05-11T02:10:29.472Z,1007.28
2019-05-11T02:11:29.412Z,1007.27
2019-05-11T02:12:29.486Z,1007.26
2019-05-11T02:13:29.381Z,1007.23
2019-05-11T02:14:29.433Z,1007.22
2019-05-11T02:15:29.367Z,1007.27
2019-05-11T02:16:29.408Z,1007.28
2019-05-11T02:17:29.348Z,1007.28
2019-05-11T02:18:29.433Z,1007.27
2019-05-11T02:19:29.337Z,1007.27
2019-05-11T02:20:29.337Z,1007.33
2019-05-11T02:21:29.298Z,1007.27
2019-05-11T02:22:29.356Z,1007.28
2019-05-11T02:23:29.281Z,1007.28
2019-05-11T02:24:44.761Z,1007.28
2019-05-11T02:25:29.252Z,1007.32
2019-05-11T02:26:36.236Z,1007.30
2019-05-11T02:27:29.236Z,1007.29
2019-05-11T02:28:38.298Z,1007.31
2019-05-11T02:29:30.603Z,1007.31
2019-05-11T02:30:29.308Z,1007.26
2019-05-11T02:31:29.190Z,1007.35
2019-05-11T02:32:29.218Z,1007.33
2019-05-11T02:33:29.170Z,1007.40
2019-05-11T02:34:29.261Z,1007.44
2019-05-11T02:35:29.157Z,1007.48
2019-05-11T02:36:29.241Z,1007.49
2019-05-11T02:37:29.122Z,1007.49
2019-05-11T02:38:29.151Z,1007.49
2019-05-11T02:39:29.118Z,1007.51
2019-05-11T02:40:29.165Z,1007.49
2019-05-11T02:41:36.262Z,1007.50
2019-05-11T02:42:30.068Z,1007.49
2019-05-11T02:43:29.085Z,1007.48
2019-05-11T02:44:29.070Z,1007.46
2019-05-11T02:45:29.097Z,1007.42
2019-05-11T02:46:29.031Z,1007.42
2019-05-11T02:47:29.110Z,1007.44
2019-05-11T02:48:29.004Z,1007.41
2019-05-11T02:49:29.056Z,1007.38
2019-05-11T02:50:28.987Z,1007.37
2019-05-11T02:51:29.035Z,1007.36
2019-05-11T02:52:28.961Z,1007.35
2019-05-11T02:53:29.049Z,1007.33
2019-05-11T02:54:28.952Z,1007.41
2019-05-11T02:55:28.961Z,1007.40
2019-05-11T02:56:28.918Z,1007.36
2019-05-11T02:57:28.974Z,1007.33
2019-05-11T02:58:28.897Z,1007.40
2019-05-11T02:59:29.998Z,1007.41
2019-05-11T03:00:28.875Z,1007.35
2019-05-11T03:01:28.924Z,1007.42
2019-05-11T03:02:28.858Z,1007.39
2019-05-11T03:03:28.915Z,1007.36
2019-05-11T03:04:28.852Z,1007.38
2019-05-11T03:05:28.945Z,1007.38
2019-05-11T03:06:28.810Z,1007.41
2019-05-11T03:07:28.920Z,1007.43
2019-05-11T03:08:28.794Z,1007.42
2019-05-11T03:09:28.897Z,1007.45
2019-05-11T03:10:28.767Z,1007.41
2019-05-11T03:11:28.866Z,1007.43
2019-05-11T03:12:28.747Z,1007.42
2019-05-11T03:13:35.743Z,1007.44
2019-05-11T03:14:28.739Z,1007.46
2019-05-11T03:15:30.737Z,1007.46
2019-05-11T03:16:28.713Z,1007.45
2019-05-11T03:17:29.728Z,1007.44
2019-05-11T03:18:28.682Z,1007.48
2019-05-11T03:19:28.753Z,1007.44
2019-05-11T03:20:28.665Z,1007.44
2019-05-11T03:21:28.826Z,1007.51
2019-05-11T03:22:28.636Z,1007.47
2019-05-11T03:23:28.643Z,1007.50
2019-05-11T03:24:28.632Z,1007.50
2019-05-11T03:25:28.657Z,1007.50
2019-05-11T03:26:28.598Z,1007.47
2019-05-11T03:27:28.676Z,1007.47
2019-05-11T03:28:28.569Z,1007.51
2019-05-11T03:29:28.621Z,1007.49
2019-05-11T03:30:28.551Z,1007.54
2019-05-11T03:31:28.593Z,1007.48
2019-05-11T03:32:28.534Z,1007.54
2019-05-11T03:33:28.607Z,1007.44
2019-05-11T03:34:28.523Z,1007.47
2019-05-11T03:35:28.574Z,1007.46
2019-05-11T03:36:28.484Z,1007.48
2019-05-11T03:37:28.551Z,1007.47
2019-05-11T03:38:28.468Z,1007.48
2019-05-11T03:39:28.577Z,1007.49
2019-05-11T03:40:28.445Z,1007.47
2019-05-11T03:41:28.457Z,1007.50
2019-05-11T03:42:28.428Z,1007.47
2019-05-11T03:43:28.470Z,1007.53
2019-05-11T03:44:28.426Z,1007.55
2019-05-11T03:45:28.487Z,1007.56
2019-05-11T03:46:28.374Z,1007.53
2019-05-11T03:47:28.396Z,1007.57
2019-05-11T03:48:28.365Z,1007.48
2019-05-11T03:49:28.443Z,1007.56
2019-05-11T03:50:28.335Z,1007.53
2019-05-11T03:51:28.428Z,1007.50
2019-05-11T03:52:28.311Z,1007.49
2019-05-11T03:53:28.334Z,1007.47
2019-05-11T03:54:28.303Z,1007.46
2019-05-11T03:55:28.383Z,1007.51
2019-05-11T03:56:28.274Z,1007.50
2019-05-11T03:57:28.361Z,1007.51
2019-05-11T03:58:28.249Z,1007.50
2019-05-11T03:59:35.236Z,1007.50
2019-05-11T04:00:28.246Z,1007.51
2019-05-11T04:01:30.255Z,1007.55
2019-05-11T04:02:28.206Z,1007.57
2019-05-11T04:03:29.229Z,1007.60
2019-05-11T04:04:28.180Z,1007.55
2019-05-11T04:05:28.248Z,1007.59
2019-05-11T04:06:28.158Z,1007.55
2019-05-11T04:07:28.226Z,1007.59
2019-05-11T04:08:28.137Z,1007.57
2019-05-11T04:09:28.138Z,1007.57
2019-05-11T04:10:28.130Z,1007.61
2019-05-11T04:11:28.151Z,1007.51
2019-05-11T04:12:34.545Z,1007.51
2019-05-11T04:13:29.192Z,1007.53
2019-05-11T04:14:28.069Z,1007.50
2019-05-11T04:15:28.107Z,1007.51
2019-05-11T04:16:29.107Z,1007.56
2019-05-11T04:17:28.090Z,1007.54
2019-05-11T04:18:28.042Z,1007.53
2019-05-11T04:19:28.102Z,1007.63
2019-05-11T04:20:28.044Z,1007.62
2019-05-11T04:21:28.019Z,1007.60
2019-05-11T04:22:27.990Z,1007.59
2019-05-11T04:23:28.037Z,1007.62
2019-05-11T04:24:27.963Z,1007.65
2019-05-11T04:25:28.074Z,1007.66
2019-05-11T04:26:27.940Z,1007.69
2019-05-11T04:27:27.957Z,1007.69
2019-05-11T04:28:27.921Z,1007.67
2019-05-11T04:29:27.968Z,1007.71
2019-05-11T04:30:27.909Z,1007.64
2019-05-11T04:31:27.996Z,1007.67
2019-05-11T04:32:27.876Z,1007.69
2019-05-11T04:33:32.401Z,1007.68
2019-05-11T04:34:28.853Z,1007.67
2019-05-11T04:35:27.937Z,1007.72
2019-05-11T04:36:27.835Z,1007.64
2019-05-11T04:37:27.923Z,1007.62
2019-05-11T04:38:27.808Z,1007.63
2019-05-11T04:39:27.936Z,1007.65
2019-05-11T04:40:27.812Z,1007.67
2019-05-11T04:41:27.845Z,1007.74
2019-05-11T04:42:27.769Z,1007.77
2019-05-11T04:43:27.862Z,1007.77
2019-05-11T04:44:27.744Z,1007.78
2019-05-11T04:45:42.244Z,1007.80
2019-05-11T04:46:27.736Z,1007.81
2019-05-11T04:47:27.797Z,1007.80
2019-05-11T04:48:27.712Z,1007.83
2019-05-11T04:49:28.720Z,1007.79
2019-05-11T04:50:27.700Z,1007.78
2019-05-11T04:51:27.713Z,1007.79
2019-05-11T04:52:27.657Z,1007.75
2019-05-11T04:53:28.138Z,1007.74
2019-05-11T04:54:27.634Z,1007.75
2019-05-11T04:55:27.670Z,1007.74
2019-05-11T04:56:27.614Z,1007.79
2019-05-11T04:57:27.651Z,1007.78
2019-05-11T04:58:27.592Z,1007.76
2019-05-11T04:59:27.666Z,1007.79
2019-05-11T05:00:27.590Z,1007.82
2019-05-11T05:01:27.576Z,1007.82
2019-05-11T05:02:27.551Z,1007.75
2019-05-11T05:03:40.314Z,1007.76
2019-05-11T05:04:28.521Z,1007.74
2019-05-11T05:05:27.632Z,1007.73
2019-05-11T05:06:27.507Z,1007.79
2019-05-11T05:07:27.513Z,1007.76
2019-05-11T05:08:28.076Z,1007.77
2019-05-11T05:09:27.637Z,1007.79
2019-05-11T05:10:27.484Z,1007.88
2019-05-11T05:11:30.572Z,1007.81
2019-05-11T05:12:28.474Z,1007.86
2019-05-11T05:13:29.591Z,1007.83
2019-05-11T05:14:27.423Z,1007.83
2019-05-11T05:15:27.511Z,1007.85
2019-05-11T05:16:31.141Z,1007.85
2019-05-11T05:17:27.477Z,1007.82
2019-05-11T05:18:27.374Z,1007.83
2019-05-11T05:19:27.389Z,1007.81
2019-05-11T05:20:27.377Z,1007.85
2019-05-11T05:21:27.402Z,1007.86
2019-05-11T05:22:28.023Z,1007.84
2019-05-11T05:23:27.415Z,1007.80
2019-05-11T05:24:27.340Z,1007.77
2019-05-11T05:25:27.368Z,1007.81
2019-05-11T05:26:27.288Z,1007.80
2019-05-11T05:27:27.371Z,1007.80
2019-05-11T05:28:27.335Z,1007.83
2019-05-11T05:29:27.355Z,1007.87
2019-05-11T05:30:27.395Z,1007.85
2019-05-11T05:31:27.266Z,1007.84
2019-05-11T05:32:27.224Z,1007.86
2019-05-11T05:33:27.387Z,1007.81
2019-05-11T05:34:27.214Z,1007.82
2019-05-11T05:35:27.297Z,1007.84
2019-05-11T05:36:27.195Z,1007.81
2019-05-11T05:37:28.516Z,1007.80
2019-05-11T05:38:27.161Z,1007.80
2019-05-11T05:39:27.220Z,1007.81
2019-05-11T05:40:27.140Z,1007.80
2019-05-11T05:41:27.161Z,1007.87
2019-05-11T05:42:27.117Z,1007.89
2019-05-11T05:43:28.610Z,1007.87
2019-05-11T05:44:27.754Z,1007.89
2019-05-11T05:45:27.158Z,1007.90
2019-05-11T05:46:27.087Z,1007.93
2019-05-11T05:47:27.171Z,1007.93
2019-05-11T05:48:27.053Z,1007.96
2019-05-11T05:49:27.085Z,1007.96
2019-05-11T05:50:27.029Z,1007.99
2019-05-11T05:51:27.127Z,1007.98
2019-05-11T05:52:27.022Z,1007.98
2019-05-11T05:53:27.007Z,1007.92
2019-05-11T05:54:26.991Z,1007.98
2019-05-11T05:55:27.023Z,1007.98
2019-05-11T05:56:26.978Z,1007.96
2019-05-11T05:57:27.036Z,1008.01
2019-05-11T05:58:26.963Z,1008.02
2019-05-11T05:59:26.951Z,1007.93
2019-05-11T06:00:26.947Z,1008.00
2019-05-11T06:01:26.993Z,1007.97
2019-05-11T06:02:26.897Z,1008.00
2019-05-11T06:03:26.974Z,1007.95
2019-05-11T06:04:26.877Z,1008.01
2019-05-11T06:05:26.889Z,1008.03
2019-05-11T06:06:26.876Z,1008.04
2019-05-11T06:07:26.902Z,1008.09
2019-05-11T06:08:26.832Z,1008.08
2019-05-11T06:09:26.917Z,1008.08
2019-05-11T06:10:28.102Z,1008.07
2019-05-11T06:11:26.857Z,1008.03
2019-05-11T06:12:26.786Z,1008.06
2019-05-11T06:13:43.842Z,1008.09
2019-05-11T06:14:27.764Z,1008.09
2019-05-11T06:15:26.853Z,1008.11
2019-05-11T06:16:26.756Z,1008.09
2019-05-11T06:17:26.765Z,1008.09
2019-05-11T06:18:26.727Z,1008.10
2019-05-11T06:19:26.779Z,1008.10
2019-05-11T06:20:26.700Z,1008.11
2019-05-11T06:21:26.723Z,1008.08
2019-05-11T06:22:26.680Z,1008.14
2019-05-11T06:23:26.709Z,1008.16
2019-05-11T06:24:26.702Z,1008.19
2019-05-11T06:25:26.721Z,1008.11
2019-05-11T06:26:26.650Z,1008.15
2019-05-11T06:27:26.735Z,1008.12
2019-05-11T06:28:26.607Z,1008.15
2019-05-11T06:29:26.646Z,1008.15
2019-05-11T06:30:26.589Z,1008.21
2019-05-11T06:31:26.692Z,1008.16
2019-05-11T06:32:26.576Z,1008.21
2019-05-11T06:33:26.674Z,1008.22
2019-05-11T06:34:26.539Z,1008.27
2019-05-11T06:35:27.611Z,1008.25
2019-05-11T06:36:26.531Z,1008.32
2019-05-11T06:37:26.599Z,1008.29
2019-05-11T06:38:26.502Z,1008.35
2019-05-11T06:39:26.509Z,1008.34
2019-05-11T06:40:28.533Z,1008.33
2019-05-11T06:41:26.557Z,1008.29
2019-05-11T06:42:26.470Z,1008.36
2019-05-11T06:43:26.602Z,1008.31
2019-05-11T06:44:26.434Z,1008.34
2019-05-11T06:45:26.422Z,1008.31
2019-05-11T06:46:26.440Z,1008.32
2019-05-11T06:47:27.609Z,1008.38
2019-05-11T06:48:26.389Z,1008.42
2019-05-11T06:49:26.516Z,1008.35
2019-05-11T06:50:26.371Z,1008.38
2019-05-11T06:51:26.424Z,1008.45
2019-05-11T06:52:26.340Z,1008.38
2019-05-11T06:53:26.396Z,1008.44
2019-05-11T06:54:26.320Z,1008.46
2019-05-11T06:55:26.411Z,1008.41
2019-05-11T06:56:26.328Z,1008.44
2019-05-11T06:57:26.319Z,1008.47
2019-05-11T06:58:26.274Z,1008.40
2019-05-11T06:59:26.336Z,1008.42
2019-05-11T07:00:26.251Z,1008.38
2019-05-11T07:01:26.276Z,1008.42
2019-05-11T07:02:26.229Z,1008.48
2019-05-11T07:03:26.260Z,1008.48
2019-05-11T07:04:26.206Z,1008.49
2019-05-11T07:05:28.219Z,1008.47
2019-05-11T07:06:30.376Z,1008.46
2019-05-11T07:07:26.183Z,1008.42
2019-05-11T07:08:26.160Z,1008.46
2019-05-11T07:09:26.199Z,1008.47
2019-05-11T07:10:26.139Z,1008.50
2019-05-11T07:11:26.245Z,1008.46
2019-05-11T07:12:27.796Z,1008.52
2019-05-11T07:13:26.139Z,1008.50
2019-05-11T07:14:26.096Z,1008.54
2019-05-11T07:15:26.090Z,1008.53
2019-05-11T07:16:26.098Z,1008.52
2019-05-11T07:17:26.154Z,1008.53
2019-05-11T07:18:26.055Z,1008.54
2019-05-11T07:19:26.065Z,1008.54
2019-05-11T07:20:26.027Z,1008.56
2019-05-11T07:21:26.076Z,1008.49
2019-05-11T07:22:26.020Z,1008.50
2019-05-11T07:23:26.090Z,1008.55
2019-05-11T07:24:25.990Z,1008.53
2019-05-11T07:25:26.007Z,1008.56
2019-05-11T07:26:25.962Z,1008.61
2019-05-11T07:27:26.053Z,1008.63
2019-05-11T07:28:25.940Z,1008.58
2019-05-11T07:29:26.033Z,1008.59
2019-05-11T07:30:25.917Z,1008.60
2019-05-11T07:31:25.960Z,1008.60
2019-05-11T07:32:26.355Z,1008.64
2019-05-11T07:33:25.970Z,1008.63
2019-05-11T07:34:27.773Z,1008.64
2019-05-11T07:35:27.920Z,1008.74
2019-05-11T07:36:28.097Z,1008.71
2019-05-11T07:37:27.825Z,1008.72
2019-05-11T07:38:27.855Z,1008.79
2019-05-11T07:39:27.972Z,1008.77
2019-05-11T07:40:27.806Z,1008.77
2019-05-11T07:41:27.988Z,1008.73
2019-05-11T07:42:25.806Z,1008.77
2019-05-11T07:43:25.822Z,1008.74
2019-05-11T07:44:35.784Z,1008.79
2019-05-11T07:45:28.347Z,1008.83
2019-05-11T07:46:25.758Z,1008.79
2019-05-11T07:47:27.795Z,1008.85
2019-05-11T07:48:33.746Z,1008.81
2019-05-11T07:49:25.714Z,1008.83
2019-05-11T07:50:33.248Z,1008.85
2019-05-11T07:51:25.694Z,1008.85
2019-05-11T07:52:25.809Z,1008.86
2019-05-11T07:53:27.844Z,1008.87
2019-05-11T07:54:27.917Z,1008.87
2019-05-11T07:55:28.007Z,1008.84
2019-05-11T07:56:25.701Z,1008.82
2019-05-11T07:57:25.642Z,1008.87
2019-05-11T07:58:25.715Z,1008.90
2019-05-11T07:59:25.605Z,1008.86
2019-05-11T08:00:27.847Z,1008.86
2019-05-11T08:01:27.952Z,1008.90
2019-05-11T08:02:28.007Z,1008.86
2019-05-11T08:03:25.562Z,1008.89
2019-05-11T08:04:25.653Z,1008.88
2019-05-11T08:05:25.540Z,1008.90
2019-05-11T08:06:25.564Z,1008.97
2019-05-11T08:07:25.532Z,1008.92
2019-05-11T08:08:28.158Z,1008.94
2019-05-11T08:09:27.623Z,1008.95
2019-05-11T08:10:27.980Z,1008.90
2019-05-11T08:11:28.933Z,1008.96
2019-05-11T08:12:28.489Z,1009.05
2019-05-11T08:13:25.461Z,1009.03
2019-05-11T08:14:25.518Z,1009.03
2019-05-11T08:15:25.437Z,1009.04
2019-05-11T08:16:28.238Z,1009.03
2019-05-11T08:17:25.425Z,1009.07
2019-05-11T08:18:27.977Z,1009.06
2019-05-11T08:19:28.087Z,1009.08
2019-05-11T08:20:27.905Z,1009.05
2019-05-11T08:21:25.367Z,1009.03
2019-05-11T08:22:25.400Z,1009.04
2019-05-11T08:23:25.344Z,1009.09
2019-05-11T08:24:25.383Z,1009.05
2019-05-11T08:25:25.320Z,1009.10
2019-05-11T08:26:25.395Z,1009.10
2019-05-11T08:27:25.319Z,1009.15
2019-05-11T08:28:25.308Z,1009.16
2019-05-11T08:29:27.668Z,1009.19
2019-05-11T08:30:27.693Z,1009.16
2019-05-11T08:31:27.706Z,1009.22
2019-05-11T08:32:28.893Z,1009.15
2019-05-11T08:33:25.232Z,1009.19
2019-05-11T08:34:28.543Z,1009.21
2019-05-11T08:35:28.562Z,1009.15
2019-05-11T08:36:29.051Z,1009.20
2019-05-11T08:37:25.200Z,1009.15
2019-05-11T08:38:28.379Z,1009.22
2019-05-11T08:39:25.164Z,1009.20
2019-05-11T08:40:25.183Z,1009.17
2019-05-11T08:41:25.145Z,1009.20
2019-05-11T08:42:25.234Z,1009.20
2019-05-11T08:43:25.131Z,1009.22
2019-05-11T08:44:25.260Z,1009.24
2019-05-11T08:45:27.616Z,1009.23
2019-05-11T08:46:25.122Z,1009.21
2019-05-11T08:47:25.110Z,1009.21
2019-05-11T08:48:25.136Z,1009.24
2019-05-11T08:49:25.064Z,1009.26
2019-05-11T08:50:27.715Z,1009.29
2019-05-11T08:51:25.070Z,1009.19
2019-05-11T08:52:25.060Z,1009.23
2019-05-11T08:53:25.026Z,1009.30
2019-05-11T08:54:25.003Z,1009.20
2019-05-11T08:55:24.995Z,1009.26
2019-05-11T08:56:25.088Z,1009.29
2019-05-11T08:57:24.964Z,1009.23
2019-05-11T08:58:25.032Z,1009.29
2019-05-11T08:59:27.959Z,1009.32
2019-05-11T09:00:25.016Z,1009.31
2019-05-11T09:01:24.922Z,1009.34
2019-05-11T09:02:24.925Z,1009.33
2019-05-11T09:03:24.916Z,1009.39
2019-05-11T09:04:24.891Z,1009.38
2019-05-11T09:05:24.877Z,1009.48
2019-05-11T09:06:24.953Z,1009.53
2019-05-11T09:07:24.856Z,1009.45
2019-05-11T09:08:24.901Z,1009.52
2019-05-11T09:09:24.834Z,1009.58
2019-05-11T09:10:24.878Z,1009.57
2019-05-11T09:11:24.821Z,1009.55
2019-05-11T09:12:24.890Z,1009.57
2019-05-11T09:13:24.829Z,1009.56
2019-05-11T09:14:24.803Z,1009.57
2019-05-11T09:15:33.582Z,1009.54
2019-05-11T09:16:25.755Z,1009.62
2019-05-11T09:17:28.905Z,1009.60
2019-05-11T09:18:24.758Z,1009.64
2019-05-11T09:19:24.734Z,1009.62
2019-05-11T09:20:24.710Z,1009.66
2019-05-11T09:21:28.006Z,1009.68
2019-05-11T09:22:24.690Z,1009.66
2019-05-11T09:23:34.680Z,1009.68
2019-05-11T09:24:28.005Z,1009.71
2019-05-11T09:25:24.673Z,1009.68
2019-05-11T09:26:24.653Z,1009.70
2019-05-11T09:27:24.689Z,1009.63
2019-05-11T09:28:24.677Z,1009.63
2019-05-11T09:29:24.700Z,1009.62
2019-05-11T09:30:24.599Z,1009.63
2019-05-11T09:31:24.611Z,1009.61
2019-05-11T09:32:24.575Z,1009.62
2019-05-11T09:33:24.660Z,1009.62
2019-05-11T09:34:24.557Z,1009.66
2019-05-11T09:35:24.640Z,1009.67
2019-05-11T09:36:24.645Z,1009.66
2019-05-11T09:37:24.556Z,1009.64
2019-05-11T09:38:24.595Z,1009.67
2019-05-11T09:39:24.564Z,1009.66
2019-05-11T09:40:24.483Z,1009.72
2019-05-11T09:41:25.500Z,1009.69
2019-05-11T09:42:24.463Z,1009.80
2019-05-11T09:43:24.528Z,1009.81
2019-05-11T09:44:24.447Z,1009.85
2019-05-11T09:45:24.504Z,1009.89
2019-05-11T09:46:24.424Z,1009.84
2019-05-11T09:47:24.516Z,1009.84
2019-05-11T09:48:24.460Z,1009.80
2019-05-11T09:49:24.427Z,1009.79
2019-05-11T09:50:24.377Z,1009.80
2019-05-11T09:51:24.441Z,1009.87
2019-05-11T09:52:24.357Z,1009.85
2019-05-11T09:53:24.385Z,1009.89
2019-05-11T09:54:24.333Z,1009.95
2019-05-11T09:55:24.367Z,1009.91
2019-05-11T09:56:24.314Z,1009.95
2019-05-11T09:57:24.393Z,1009.89
2019-05-11T09:58:24.315Z,1009.95
2019-05-11T09:59:24.292Z,1010.00
2019-05-11T10:00:24.265Z,1009.93
2019-05-11T10:01:26.355Z,1010.01
2019-05-11T10:02:24.252Z,1010.02
2019-05-11T10:03:25.273Z,1010.00
2019-05-11T10:04:24.223Z,1009.95
2019-05-11T10:05:24.231Z,1009.97
2019-05-11T10:06:24.212Z,1009.94
2019-05-11T10:07:24.244Z,1009.97
2019-05-11T10:08:24.200Z,1009.98
2019-05-11T10:09:27.985Z,1009.97
2019-05-11T10:10:24.155Z,1009.99
2019-05-11T10:11:24.174Z,1009.98
2019-05-11T10:12:24.134Z,1009.93
2019-05-11T10:13:24.216Z,1010.00
2019-05-11T10:14:24.112Z,1009.92
2019-05-11T10:15:24.196Z,1009.95
2019-05-11T10:16:24.089Z,1009.96
2019-05-11T10:17:24.108Z,1009.98
2019-05-11T10:18:24.461Z,1010.04
2019-05-11T10:19:24.121Z,1009.93
2019-05-11T10:20:24.045Z,1010.00
2019-05-11T10:21:24.137Z,1010.05
2019-05-11T10:22:24.024Z,1010.00
2019-05-11T10:23:24.047Z,1010.00
2019-05-11T10:24:24.020Z,1010.04
2019-05-11T10:25:24.060Z,1010.04
2019-05-11T10:26:23.982Z,1010.09
2019-05-11T10:27:24.074Z,1010.10
2019-05-11T10:28:23.962Z,1010.10
2019-05-11T10:29:24.017Z,1010.17
2019-05-11T10:30:23.940Z,1010.11
2019-05-11T10:31:23.999Z,1010.09
2019-05-11T10:32:23.918Z,1010.09
2019-05-11T10:33:24.013Z,1010.06
2019-05-11T10:34:23.915Z,1010.11
2019-05-11T10:35:23.926Z,1010.09
2019-05-11T10:36:23.869Z,1010.08
2019-05-11T10:37:23.958Z,1010.05
2019-05-11T10:38:23.853Z,1010.09
2019-05-11T10:39:23.882Z,1010.15
2019-05-11T10:40:23.825Z,1010.11
2019-05-11T10:41:23.862Z,1010.14
2019-05-11T10:42:23.802Z,1010.16
2019-05-11T10:43:23.877Z,1010.10
2019-05-11T10:44:23.794Z,1010.21
2019-05-11T10:45:23.788Z,1010.23
2019-05-11T10:46:23.802Z,1010.21
2019-05-11T10:47:24.828Z,1010.23
2019-05-11T10:48:23.738Z,1010.18
2019-05-11T10:49:23.852Z,1010.26
2019-05-11T10:50:23.717Z,1010.22
2019-05-11T10:51:23.710Z,1010.19
2019-05-11T10:52:23.695Z,1010.34
2019-05-11T10:53:23.740Z,1010.36
2019-05-11T10:54:23.712Z,1010.26
2019-05-11T10:55:24.675Z,1010.24
2019-05-11T10:56:24.050Z,1010.30
2019-05-11T10:57:23.669Z,1010.32
2019-05-11T10:58:23.630Z,1010.32
2019-05-11T10:59:23.712Z,1010.30
2019-05-11T11:00:23.609Z,1010.34
2019-05-11T11:01:23.694Z,1010.32
2019-05-11T11:02:23.591Z,1010.30
2019-05-11T11:03:23.606Z,1010.34
2019-05-11T11:04:23.584Z,1010.34
2019-05-11T11:05:23.619Z,1010.31
2019-05-11T11:06:23.543Z,1010.33
2019-05-11T11:07:23.538Z,1010.34
2019-05-11T11:08:23.518Z,1010.35
2019-05-11T11:09:23.526Z,1010.35
2019-05-11T11:10:23.497Z,1010.29
2019-05-11T11:11:23.558Z,1010.31
2019-05-11T11:12:23.474Z,1010.30
2019-05-11T11:13:23.577Z,1010.31
2019-05-11T11:14:23.472Z,1010.32
2019-05-11T11:15:23.481Z,1010.26
2019-05-11T11:16:35.554Z,1010.31
2019-05-11T11:17:24.418Z,1010.30
2019-05-11T11:18:23.503Z,1010.30
2019-05-11T11:19:23.417Z,1010.30
2019-05-11T11:20:23.413Z,1010.32
2019-05-11T11:21:23.415Z,1010.24
2019-05-11T11:22:38.969Z,1010.34
2019-05-11T11:23:24.460Z,1010.34
2019-05-11T11:24:23.380Z,1010.34
2019-05-11T11:25:23.346Z,1010.31
2019-05-11T11:26:23.320Z,1010.33
2019-05-11T11:27:23.360Z,1010.36
2019-05-11T11:28:23.301Z,1010.40
2019-05-11T11:29:23.403Z,1010.48
2019-05-11T11:30:23.278Z,1010.48
2019-05-11T11:31:30.254Z,1010.48
2019-05-11T11:32:23.265Z,1010.55
2019-05-11T11:33:38.418Z,1010.50
2019-05-11T11:34:23.232Z,1010.54
2019-05-11T11:35:24.270Z,1010.57
2019-05-11T11:36:23.210Z,1010.29
2019-05-11T11:37:23.223Z,1010.29
2019-05-11T11:38:23.187Z,1010.29
2019-05-11T11:39:23.236Z,1010.27
2019-05-11T11:40:23.180Z,1010.37
2019-05-11T11:41:23.251Z,1010.28
2019-05-11T11:42:23.145Z,1010.33
2019-05-11T11:43:23.162Z,1010.38
2019-05-11T11:44:23.139Z,1010.39
2019-05-11T11:45:23.210Z,1010.39
2019-05-11T11:46:23.105Z,1010.45
2019-05-11T11:47:23.189Z,1010.47
2019-05-11T11:48:23.080Z,1010.54
2019-05-11T11:49:23.100Z,1010.54
2019-05-11T11:50:23.072Z,1010.45
2019-05-11T11:51:23.119Z,1010.48
2019-05-11T11:52:23.040Z,1010.44
2019-05-11T11:53:23.141Z,1010.44
2019-05-11T11:54:23.013Z,1010.47
2019-05-11T11:55:23.069Z,1010.48
2019-05-11T11:56:22.996Z,1010.48
2019-05-11T11:57:23.053Z,1010.46
2019-05-11T11:58:24.049Z,1010.50
2019-05-11T11:59:23.069Z,1010.56
2019-05-11T12:00:22.963Z,1010.51
2019-05-11T12:01:22.979Z,1010.46
2019-05-11T12:02:22.933Z,1010.45
2019-05-11T12:03:22.991Z,1010.49
2019-05-11T12:04:22.913Z,1010.49
2019-05-11T12:05:22.934Z,1010.64